MSC Maeva — H9TF — position and weather

sailwx.info

Track history (hours):
 
Tides and Currents Weather Stations Pressure Air Temp Water Temp Dewpoint Dewpoint Depression Visibility Wind Speed Wind Dir Waves Ship Positions

MSC Maeva

Last reported at 2014-Jul-22 01:24 UTC. Time now 2014-Jul-22 07:21 UTC.
Position N 23°43' E 118°28'.

Type: Ship (hazmat cat A). MMSI: 371851000.

Date/timePositionNaut miles runAvg speedWind from/ knotsBaromVisibWave heightAir tempDewpointWater temp
2014-Jul-22 01:24N 23°43' E 118°28'26517.8
2014-Jul-21 10:33N 22°25' E 113°53'3 2.6
2014-Jul-21 09:24N 22°28' E 113°53'0 0.0
2014-Jul-21 08:30N 22°28' E 113°53'0 0.0
2014-Jul-21 07:30N 22°28' E 113°53'0 0.0
2014-Jul-21 06:30N 22°28' E 113°53'0 0.0
2014-Jul-21 04:06N 22°28' E 113°53'0 0.0
2014-Jul-21 03:29N 22°28' E 113°53'0 0.0
2014-Jul-21 02:29N 22°28' E 113°53'0 0.0
2014-Jul-21 01:32N 22°28' E 113°53'0 0.0
2014-Jul-21 00:32N 22°28' E 113°53'0 0.0
2014-Jul-20 23:32N 22°28' E 113°53'0 0.0
2014-Jul-20 22:32N 22°28' E 113°53'0 0.0
2014-Jul-20 21:32N 22°28' E 113°53'0 0.0
2014-Jul-20 20:32N 22°28' E 113°53'0 0.0
2014-Jul-20 19:32N 22°28' E 113°53'0 0.0
2014-Jul-20 18:29N 22°28' E 113°53'0 0.0
2014-Jul-20 17:29N 22°28' E 113°53'0 0.0
2014-Jul-20 16:32N 22°28' E 113°53'0 0.0
2014-Jul-20 15:32N 22°28' E 113°53'0 0.0
2014-Jul-20 14:23N 22°28' E 113°53'0 0.0
2014-Jul-20 13:32N 22°28' E 113°53'0 0.0
2014-Jul-20 12:20N 22°28' E 113°53'0 0.0
2014-Jul-20 11:26N 22°28' E 113°53'0 0.0
2014-Jul-20 10:17N 22°28' E 113°53'0 0.0
2014-Jul-20 09:26N 22°28' E 113°53'0 0.0
2014-Jul-20 08:11N 22°28' E 113°53'0 0.0
2014-Jul-20 07:05N 22°28' E 113°53'0 0.0
2014-Jul-20 06:32N 22°28' E 113°53'0 0.0
2014-Jul-20 05:32N 22°28' E 113°53'0 0.0
2014-Jul-20 04:23N 22°28' E 113°53'0 0.0
2014-Jul-20 03:08N 22°28' E 113°53'0 0.0
2014-Jul-20 02:33N 22°28' E 113°53'4 3.7
2014-Jul-20 01:33N 22°24' E 113°54'11 9.2
2014-Jul-20 00:19N 22°20' E 114°05'  
2014-Jul-15 03:15N 01°14' E 103°56'9 8.8
2014-Jul-15 02:12N 01°15' E 103°47'2 2.6
2014-Jul-15 01:27N 01°16' E 103°46'0 0.0
2014-Jul-15 00:32N 01°16' E 103°46'0 0.0
2014-Jul-14 23:33N 01°16' E 103°46'0 0.0
2014-Jul-14 22:31N 01°16' E 103°46'0 0.0
2014-Jul-14 21:33N 01°16' E 103°46'0 0.0
2014-Jul-14 20:33N 01°16' E 103°46'0 0.0
2014-Jul-14 18:33N 01°16' E 103°46'0 0.0
2014-Jul-14 17:04N 01°16' E 103°46'0 0.0
2014-Jul-14 16:33N 01°16' E 103°46'0 0.0
2014-Jul-14 15:33N 01°16' E 103°46'0 0.0
2014-Jul-14 14:33N 01°16' E 103°46'0 0.0
2014-Jul-14 13:33N 01°16' E 103°46'0 0.0
2014-Jul-14 12:33N 01°16' E 103°46'0 0.0
2014-Jul-14 11:33N 01°16' E 103°46'0 0.0
2014-Jul-14 10:33N 01°16' E 103°46'0 0.0
2014-Jul-14 09:30N 01°16' E 103°46'0 0.0
2014-Jul-14 08:33N 01°16' E 103°46'0 0.0
2014-Jul-14 07:33N 01°16' E 103°46'0 0.0
2014-Jul-14 06:33N 01°16' E 103°46'0 0.0
2014-Jul-14 05:27N 01°16' E 103°46'0 0.0
2014-Jul-14 04:22N 01°16' E 103°46'0 0.0
2014-Jul-14 03:33N 01°16' E 103°46'  
Track history (hours):
 
Tides and Currents Weather Stations Pressure Air Temp Water Temp Dewpoint Dewpoint Depression Visibility Wind Speed Wind Dir Waves Ship Positions

MSC Maeva

Last reported at 2014-Jul-22 01:24 UTC. Time now 2014-Jul-22 07:21 UTC.
Position N 23°43' E 118°28'.

Type: Ship (hazmat cat A). MMSI: 371851000.

Date/timePositionNaut miles runAvg speedWind from/ knotsBaromVisibWave heightAir tempDewpointWater temp
2014-Jul-22 01:24N 23°43' E 118°28'26517.8
2014-Jul-21 10:33N 22°25' E 113°53'3 2.6
2014-Jul-21 09:24N 22°28' E 113°53'0 0.0
2014-Jul-21 08:30N 22°28' E 113°53'0 0.0
2014-Jul-21 07:30N 22°28' E 113°53'0 0.0
2014-Jul-21 06:30N 22°28' E 113°53'0 0.0
2014-Jul-21 04:06N 22°28' E 113°53'0 0.0
2014-Jul-21 03:29N 22°28' E 113°53'0 0.0
2014-Jul-21 02:29N 22°28' E 113°53'0 0.0
2014-Jul-21 01:32N 22°28' E 113°53'0 0.0
2014-Jul-21 00:32N 22°28' E 113°53'0 0.0
2014-Jul-20 23:32N 22°28' E 113°53'0 0.0
2014-Jul-20 22:32N 22°28' E 113°53'0 0.0
2014-Jul-20 21:32N 22°28' E 113°53'0 0.0
2014-Jul-20 20:32N 22°28' E 113°53'0 0.0
2014-Jul-20 19:32N 22°28' E 113°53'0 0.0
2014-Jul-20 18:29N 22°28' E 113°53'0 0.0
2014-Jul-20 17:29N 22°28' E 113°53'0 0.0
2014-Jul-20 16:32N 22°28' E 113°53'0 0.0
2014-Jul-20 15:32N 22°28' E 113°53'0 0.0
2014-Jul-20 14:23N 22°28' E 113°53'0 0.0
2014-Jul-20 13:32N 22°28' E 113°53'0 0.0
2014-Jul-20 12:20N 22°28' E 113°53'0 0.0
2014-Jul-20 11:26N 22°28' E 113°53'0 0.0
2014-Jul-20 10:17N 22°28' E 113°53'0 0.0
2014-Jul-20 09:26N 22°28' E 113°53'0 0.0
2014-Jul-20 08:11N 22°28' E 113°53'0 0.0
2014-Jul-20 07:05N 22°28' E 113°53'0 0.0
2014-Jul-20 06:32N 22°28' E 113°53'0 0.0
2014-Jul-20 05:32N 22°28' E 113°53'0 0.0
2014-Jul-20 04:23N 22°28' E 113°53'0 0.0
2014-Jul-20 03:08N 22°28' E 113°53'0 0.0
2014-Jul-20 02:33N 22°28' E 113°53'4 3.7
2014-Jul-20 01:33N 22°24' E 113°54'11 9.2
2014-Jul-20 00:19N 22°20' E 114°05'  
2014-Jul-15 03:15N 01°14' E 103°56'9 8.8
2014-Jul-15 02:12N 01°15' E 103°47'2 2.6
2014-Jul-15 01:27N 01°16' E 103°46'0 0.0
2014-Jul-15 00:32N 01°16' E 103°46'0 0.0
2014-Jul-14 23:33N 01°16' E 103°46'0 0.0
2014-Jul-14 22:31N 01°16' E 103°46'0 0.0
2014-Jul-14 21:33N 01°16' E 103°46'0 0.0
2014-Jul-14 20:33N 01°16' E 103°46'0 0.0
2014-Jul-14 18:33N 01°16' E 103°46'0 0.0
2014-Jul-14 17:04N 01°16' E 103°46'0 0.0
2014-Jul-14 16:33N 01°16' E 103°46'0 0.0
2014-Jul-14 15:33N 01°16' E 103°46'0 0.0
2014-Jul-14 14:33N 01°16' E 103°46'0 0.0
2014-Jul-14 13:33N 01°16' E 103°46'0 0.0
2014-Jul-14 12:33N 01°16' E 103°46'0 0.0
2014-Jul-14 11:33N 01°16' E 103°46'0 0.0
2014-Jul-14 10:33N 01°16' E 103°46'0 0.0
2014-Jul-14 09:30N 01°16' E 103°46'0 0.0
2014-Jul-14 08:33N 01°16' E 103°46'0 0.0
2014-Jul-14 07:33N 01°16' E 103°46'0 0.0
2014-Jul-14 06:33N 01°16' E 103°46'0 0.0
2014-Jul-14 05:27N 01°16' E 103°46'0 0.0
2014-Jul-14 04:22N 01°16' E 103°46'0 0.0
2014-Jul-14 03:33N 01°16' E 103°46'  

Dump ship's entire track history